Kingston, Rhode Island
Current Conditions -  °F | °C
As of 12:53 PM on Saturday 20 Dec 2014 (Local Time) from KUUU Reporting Station
Overcast Overcast  
Wind Chill: 28°   Ceiling: 3300
Heat Index: 35°   Visibility: 10mi
Dew Point: 26°   Wind: 9mph
Humidity: 70%   Direction: 360°N
Pressure: 30.23"   Gusts: NA
Location:  41.48°N, 71.52°W
Report Text: KUUU 201753Z AUTO 36008KT 10SM OVC033 02/M03 A3023 RMK AO2 SLP236 T00171033 10017 21011 55005
Loading
Personal Weather Stations






























Interactive Weather Map New forecast layout! Learn more

10-Day Weather Forecast

Advertisements
Track Severe Weather on mobile